sensor_id;sensor_type;location;lat;lon;timestamp;temperature;humidity
13642;DHT22;6894;52.196;9.904;2023-03-15T00:00:11;2.90;99.90
13642;DHT22;6894;52.196;9.904;2023-03-15T00:02:38;2.90;99.90
13642;DHT22;6894;52.196;9.904;2023-03-15T00:05:06;2.90;99.90
13642;DHT22;6894;52.196;9.904;2023-03-15T00:07:33;2.90;99.90
13642;DHT22;6894;52.196;9.904;2023-03-15T00:09:59;2.90;99.90
13642;DHT22;6894;52.196;9.904;2023-03-15T00:12:26;2.70;99.90
13642;DHT22;6894;52.196;9.904;2023-03-15T00:14:54;2.90;99.90
13642;DHT22;6894;52.196;9.904;2023-03-15T00:17:21;2.90;99.90
13642;DHT22;6894;52.196;9.904;2023-03-15T00:19:48;2.80;99.90
13642;DHT22;6894;52.196;9.904;2023-03-15T00:22:14;2.80;99.90
13642;DHT22;6894;52.196;9.904;2023-03-15T00:24:41;2.90;99.90
13642;DHT22;6894;52.196;9.904;2023-03-15T00:27:08;2.90;99.90
13642;DHT22;6894;52.196;9.904;2023-03-15T00:29:35;2.90;99.90
13642;DHT22;6894;52.196;9.904;2023-03-15T00:32:03;3.00;99.90
13642;DHT22;6894;52.196;9.904;2023-03-15T00:34:31;3.00;99.90
13642;DHT22;6894;52.196;9.904;2023-03-15T00:36:58;3.00;99.90
13642;DHT22;6894;52.196;9.904;2023-03-15T00:39:25;3.00;99.90
13642;DHT22;6894;52.196;9.904;2023-03-15T00:41:51;3.00;99.90
13642;DHT22;6894;52.196;9.904;2023-03-15T00:44:21;3.00;99.90
13642;DHT22;6894;52.196;9.904;2023-03-15T00:46:48;3.00;99.90
13642;DHT22;6894;52.196;9.904;2023-03-15T00:49:16;3.00;99.90
13642;DHT22;6894;52.196;9.904;2023-03-15T00:51:42;3.00;99.90
13642;DHT22;6894;52.196;9.904;2023-03-15T00:54:09;3.00;99.90
13642;DHT22;6894;52.196;9.904;2023-03-15T00:56:38;3.10;99.90
13642;DHT22;6894;52.196;9.904;2023-03-15T00:59:05;3.10;99.90
13642;DHT22;6894;52.196;9.904;2023-03-15T01:01:33;3.00;99.90
13642;DHT22;6894;52.196;9.904;2023-03-15T01:03:59;3.00;99.90
13642;DHT22;6894;52.196;9.904;2023-03-15T01:06:28;3.00;99.90
13642;DHT22;6894;52.196;9.904;2023-03-15T01:08:55;3.00;99.90
13642;DHT22;6894;52.196;9.904;2023-03-15T01:11:24;3.10;99.90
13642;DHT22;6894;52.196;9.904;2023-03-15T01:13:51;3.10;99.90
13642;DHT22;6894;52.196;9.904;2023-03-15T01:16:18;3.10;99.90
13642;DHT22;6894;52.196;9.904;2023-03-15T01:18:44;3.00;99.90
13642;DHT22;6894;52.196;9.904;2023-03-15T01:21:13;3.00;99.90
13642;DHT22;6894;52.196;9.904;2023-03-15T01:23:42;3.00;99.90
13642;DHT22;6894;52.196;9.904;2023-03-15T01:26:11;3.10;99.90
13642;DHT22;6894;52.196;9.904;2023-03-15T01:28:38;3.10;99.90
13642;DHT22;6894;52.196;9.904;2023-03-15T01:31:05;3.10;99.90
13642;DHT22;6894;52.196;9.904;2023-03-15T01:33:32;3.10;99.90
13642;DHT22;6894;52.196;9.904;2023-03-15T01:36:00;3.10;99.90
13642;DHT22;6894;52.196;9.904;2023-03-15T01:38:27;3.10;99.90
13642;DHT22;6894;52.196;9.904;2023-03-15T01:40:56;3.10;99.90
13642;DHT22;6894;52.196;9.904;2023-03-15T01:43:23;3.10;99.90
13642;DHT22;6894;52.196;9.904;2023-03-15T01:46:11;3.10;99.90
13642;DHT22;6894;52.196;9.904;2023-03-15T01:48:42;3.10;99.90
13642;DHT22;6894;52.196;9.904;2023-03-15T01:51:13;3.10;99.90
13642;DHT22;6894;52.196;9.904;2023-03-15T01:53:45;3.20;99.90
13642;DHT22;6894;52.196;9.904;2023-03-15T01:56:14;3.10;99.90
13642;DHT22;6894;52.196;9.904;2023-03-15T01:58:42;3.20;99.90
13642;DHT22;6894;52.196;9.904;2023-03-15T02:01:10;3.20;99.90
13642;DHT22;6894;52.196;9.904;2023-03-15T02:03:41;3.30;99.90
13642;DHT22;6894;52.196;9.904;2023-03-15T02:06:13;3.20;99.90
13642;DHT22;6894;52.196;9.904;2023-03-15T02:08:44;3.20;99.90
13642;DHT22;6894;52.196;9.904;2023-03-15T02:11:14;3.30;99.90
13642;DHT22;6894;52.196;9.904;2023-03-15T02:13:41;3.30;99.90
13642;DHT22;6894;52.196;9.904;2023-03-15T02:16:08;3.30;99.90
13642;DHT22;6894;52.196;9.904;2023-03-15T02:18:35;3.40;99.90
13642;DHT22;6894;52.196;9.904;2023-03-15T02:21:10;3.40;99.90
13642;DHT22;6894;52.196;9.904;2023-03-15T02:23:38;3.40;99.90
13642;DHT22;6894;52.196;9.904;2023-03-15T02:26:15;3.50;99.90
13642;DHT22;6894;52.196;9.904;2023-03-15T02:28:45;3.50;99.90
13642;DHT22;6894;52.196;9.904;2023-03-15T02:31:13;3.50;99.90
13642;DHT22;6894;52.196;9.904;2023-03-15T02:33:43;3.40;99.90
13642;DHT22;6894;52.196;9.904;2023-03-15T02:36:15;4.00;99.90
13642;DHT22;6894;52.196;9.904;2023-03-15T02:38:43;3.50;99.90
13642;DHT22;6894;52.196;9.904;2023-03-15T02:41:10;3.50;99.90
13642;DHT22;6894;52.196;9.904;2023-03-15T02:43:38;3.50;99.90
13642;DHT22;6894;52.196;9.904;2023-03-15T02:46:08;3.40;99.90
13642;DHT22;6894;52.196;9.904;2023-03-15T02:48:35;3.40;99.90
13642;DHT22;6894;52.196;9.904;2023-03-15T02:51:03;3.40;99.90
13642;DHT22;6894;52.196;9.904;2023-03-15T02:53:30;3.40;99.90
13642;DHT22;6894;52.196;9.904;2023-03-15T02:55:58;3.30;99.90
13642;DHT22;6894;52.196;9.904;2023-03-15T02:58:24;3.40;99.90
13642;DHT22;6894;52.196;9.904;2023-03-15T03:00:52;3.30;99.90
13642;DHT22;6894;52.196;9.904;2023-03-15T03:03:20;3.30;99.90
13642;DHT22;6894;52.196;9.904;2023-03-15T03:05:46;3.30;99.90
13642;DHT22;6894;52.196;9.904;2023-03-15T03:08:13;3.30;99.90
13642;DHT22;6894;52.196;9.904;2023-03-15T03:10:41;3.30;99.90
13642;DHT22;6894;52.196;9.904;2023-03-15T03:13:07;3.40;99.90
13642;DHT22;6894;52.196;9.904;2023-03-15T03:15:34;3.40;99.90
13642;DHT22;6894;52.196;9.904;2023-03-15T03:18:01;3.30;99.90
13642;DHT22;6894;52.196;9.904;2023-03-15T03:20:29;3.30;99.90
13642;DHT22;6894;52.196;9.904;2023-03-15T03:22:56;3.30;99.90
13642;DHT22;6894;52.196;9.904;2023-03-15T03:25:22;3.30;99.90
13642;DHT22;6894;52.196;9.904;2023-03-15T03:27:51;3.30;99.90
13642;DHT22;6894;52.196;9.904;2023-03-15T03:30:21;3.30;99.90
13642;DHT22;6894;52.196;9.904;2023-03-15T03:32:48;3.20;99.90
13642;DHT22;6894;52.196;9.904;2023-03-15T03:35:15;3.20;99.90
13642;DHT22;6894;52.196;9.904;2023-03-15T03:37:43;3.20;99.90
13642;DHT22;6894;52.196;9.904;2023-03-15T03:40:11;3.10;99.90
13642;DHT22;6894;52.196;9.904;2023-03-15T03:42:38;3.10;99.90
13642;DHT22;6894;52.196;9.904;2023-03-15T03:45:06;3.10;99.90
13642;DHT22;6894;52.196;9.904;2023-03-15T03:47:33;3.10;99.90
13642;DHT22;6894;52.196;9.904;2023-03-15T03:49:59;3.00;99.90
13642;DHT22;6894;52.196;9.904;2023-03-15T03:52:26;3.00;99.90
13642;DHT22;6894;52.196;9.904;2023-03-15T03:54:54;3.00;99.90
13642;DHT22;6894;52.196;9.904;2023-03-15T03:57:21;3.00;99.90
13642;DHT22;6894;52.196;9.904;2023-03-15T03:59:47;2.90;99.90
13642;DHT22;6894;52.196;9.904;2023-03-15T04:02:14;3.00;99.90
13642;DHT22;6894;52.196;9.904;2023-03-15T04:04:41;2.90;99.90
13642;DHT22;6894;52.196;9.904;2023-03-15T04:07:07;2.90;99.90
13642;DHT22;6894;52.196;9.904;2023-03-15T04:09:34;2.90;99.90
13642;DHT22;6894;52.196;9.904;2023-03-15T04:12:03;2.90;99.90
13642;DHT22;6894;52.196;9.904;2023-03-15T04:14:30;2.90;99.90
13642;DHT22;6894;52.196;9.904;2023-03-15T04:16:57;2.80;99.90
13642;DHT22;6894;52.196;9.904;2023-03-15T04:19:24;2.80;99.90
13642;DHT22;6894;52.196;9.904;2023-03-15T04:21:51;2.80;99.90
13642;DHT22;6894;52.196;9.904;2023-03-15T04:24:18;2.70;99.90
13642;DHT22;6894;52.196;9.904;2023-03-15T04:26:45;2.60;99.90
13642;DHT22;6894;52.196;9.904;2023-03-15T04:29:14;2.60;99.90
13642;DHT22;6894;52.196;9.904;2023-03-15T04:31:41;2.60;99.90
13642;DHT22;6894;52.196;9.904;2023-03-15T04:34:08;2.60;99.90
13642;DHT22;6894;52.196;9.904;2023-03-15T04:36:35;2.60;99.90
13642;DHT22;6894;52.196;9.904;2023-03-15T04:39:02;2.60;99.90
13642;DHT22;6894;52.196;9.904;2023-03-15T04:41:32;2.60;99.90
13642;DHT22;6894;52.196;9.904;2023-03-15T04:44:00;2.60;99.90
13642;DHT22;6894;52.196;9.904;2023-03-15T04:46:29;2.60;99.90
13642;DHT22;6894;52.196;9.904;2023-03-15T04:48:56;2.60;99.90
13642;DHT22;6894;52.196;9.904;2023-03-15T04:51:23;2.60;99.90
13642;DHT22;6894;52.196;9.904;2023-03-15T04:53:50;2.60;99.90
13642;DHT22;6894;52.196;9.904;2023-03-15T04:56:17;2.60;99.90
13642;DHT22;6894;52.196;9.904;2023-03-15T04:58:43;2.70;99.90
13642;DHT22;6894;52.196;9.904;2023-03-15T05:01:10;2.70;99.90
13642;DHT22;6894;52.196;9.904;2023-03-15T05:03:39;2.70;99.90
13642;DHT22;6894;52.196;9.904;2023-03-15T05:06:06;2.80;99.90
13642;DHT22;6894;52.196;9.904;2023-03-15T05:08:33;3.20;99.90
13642;DHT22;6894;52.196;9.904;2023-03-15T05:11:00;2.80;99.90
13642;DHT22;6894;52.196;9.904;2023-03-15T05:13:27;2.80;99.90
13642;DHT22;6894;52.196;9.904;2023-03-15T05:15:54;2.80;99.90
13642;DHT22;6894;52.196;9.904;2023-03-15T05:18:21;2.80;99.90
13642;DHT22;6894;52.196;9.904;2023-03-15T05:20:49;2.80;99.90
13642;DHT22;6894;52.196;9.904;2023-03-15T05:23:16;2.80;99.90
13642;DHT22;6894;52.196;9.904;2023-03-15T05:25:42;2.80;99.90
13642;DHT22;6894;52.196;9.904;2023-03-15T05:28:09;2.80;99.90
13642;DHT22;6894;52.196;9.904;2023-03-15T05:30:36;2.80;99.90
13642;DHT22;6894;52.196;9.904;2023-03-15T05:33:02;2.80;99.90
13642;DHT22;6894;52.196;9.904;2023-03-15T05:35:29;2.80;99.90
13642;DHT22;6894;52.196;9.904;2023-03-15T05:37:57;2.70;99.90
13642;DHT22;6894;52.196;9.904;2023-03-15T05:40:25;2.80;99.90
13642;DHT22;6894;52.196;9.904;2023-03-15T05:42:54;2.70;99.90
13642;DHT22;6894;52.196;9.904;2023-03-15T05:45:21;2.70;99.90
13642;DHT22;6894;52.196;9.904;2023-03-15T05:47:48;2.70;99.90
13642;DHT22;6894;52.196;9.904;2023-03-15T05:50:14;2.80;99.90
13642;DHT22;6894;52.196;9.904;2023-03-15T05:52:42;2.80;99.90
13642;DHT22;6894;52.196;9.904;2023-03-15T05:55:10;2.80;99.90
13642;DHT22;6894;52.196;9.904;2023-03-15T05:57:37;2.80;99.90
13642;DHT22;6894;52.196;9.904;2023-03-15T06:00:05;2.80;99.90
13642;DHT22;6894;52.196;9.904;2023-03-15T06:02:33;2.80;99.90
13642;DHT22;6894;52.196;9.904;2023-03-15T06:05:00;2.80;99.90
13642;DHT22;6894;52.196;9.904;2023-03-15T06:07:26;2.80;99.90
13642;DHT22;6894;52.196;9.904;2023-03-15T06:09:53;2.80;99.90
13642;DHT22;6894;52.196;9.904;2023-03-15T06:12:21;2.80;99.90
13642;DHT22;6894;52.196;9.904;2023-03-15T06:14:48;2.80;99.90
13642;DHT22;6894;52.196;9.904;2023-03-15T06:17:14;2.80;99.90
13642;DHT22;6894;52.196;9.904;2023-03-15T06:19:41;2.90;99.90
13642;DHT22;6894;52.196;9.904;2023-03-15T06:22:08;2.90;99.90
13642;DHT22;6894;52.196;9.904;2023-03-15T06:24:35;2.90;99.90
13642;DHT22;6894;52.196;9.904;2023-03-15T06:27:02;2.90;99.90
13642;DHT22;6894;52.196;9.904;2023-03-15T06:29:30;3.30;99.90
13642;DHT22;6894;52.196;9.904;2023-03-15T06:31:57;3.00;99.90
13642;DHT22;6894;52.196;9.904;2023-03-15T06:34:23;2.90;99.90
13642;DHT22;6894;52.196;9.904;2023-03-15T06:36:50;3.00;99.90
13642;DHT22;6894;52.196;9.904;2023-03-15T06:39:17;2.90;99.90
13642;DHT22;6894;52.196;9.904;2023-03-15T06:41:44;2.90;99.90
13642;DHT22;6894;52.196;9.904;2023-03-15T06:44:11;3.00;99.90
13642;DHT22;6894;52.196;9.904;2023-03-15T06:46:39;3.00;99.90
13642;DHT22;6894;52.196;9.904;2023-03-15T06:49:06;3.00;99.90
13642;DHT22;6894;52.196;9.904;2023-03-15T06:51:33;3.10;99.90
13642;DHT22;6894;52.196;9.904;2023-03-15T06:53:59;3.00;99.90
13642;DHT22;6894;52.196;9.904;2023-03-15T06:56:26;3.00;99.90
13642;DHT22;6894;52.196;9.904;2023-03-15T06:58:53;3.10;99.90
13642;DHT22;6894;52.196;9.904;2023-03-15T07:01:20;3.10;99.90
13642;DHT22;6894;52.196;9.904;2023-03-15T07:03:48;3.10;99.90
13642;DHT22;6894;52.196;9.904;2023-03-15T07:06:14;3.20;99.90
13642;DHT22;6894;52.196;9.904;2023-03-15T07:08:41;3.20;99.90
13642;DHT22;6894;52.196;9.904;2023-03-15T07:11:08;3.20;99.90
13642;DHT22;6894;52.196;9.904;2023-03-15T07:13:35;3.30;99.90
13642;DHT22;6894;52.196;9.904;2023-03-15T07:16:02;3.30;99.90
13642;DHT22;6894;52.196;9.904;2023-03-15T07:18:29;3.40;99.90
13642;DHT22;6894;52.196;9.904;2023-03-15T07:21:00;3.50;99.90
13642;DHT22;6894;52.196;9.904;2023-03-15T07:23:28;3.70;99.90
13642;DHT22;6894;52.196;9.904;2023-03-15T07:25:55;4.20;99.90
13642;DHT22;6894;52.196;9.904;2023-03-15T07:28:23;4.00;99.90
13642;DHT22;6894;52.196;9.904;2023-03-15T07:30:54;4.20;99.90
13642;DHT22;6894;52.196;9.904;2023-03-15T07:33:21;4.30;99.90
13642;DHT22;6894;52.196;9.904;2023-03-15T07:35:48;4.40;95.60
13642;DHT22;6894;52.196;9.904;2023-03-15T07:38:16;4.40;56.00
13642;DHT22;6894;52.196;9.904;2023-03-15T07:40:43;4.50;46.50
13642;DHT22;6894;52.196;9.904;2023-03-15T07:43:10;4.40;3.10
13642;DHT22;6894;52.196;9.904;2023-03-15T07:45:37;4.40;7.70
13642;DHT22;6894;52.196;9.904;2023-03-15T07:48:04;4.40;19.30
13642;DHT22;6894;52.196;9.904;2023-03-15T07:50:31;4.30;16.20
13642;DHT22;6894;52.196;9.904;2023-03-15T07:52:57;4.30;47.10
13642;DHT22;6894;52.196;9.904;2023-03-15T07:55:25;4.20;91.90
13642;DHT22;6894;52.196;9.904;2023-03-15T07:57:52;4.20;99.90
13642;DHT22;6894;52.196;9.904;2023-03-15T08:00:20;4.20;99.90
13642;DHT22;6894;52.196;9.904;2023-03-15T08:02:47;4.30;99.90
13642;DHT22;6894;52.196;9.904;2023-03-15T08:05:14;4.60;97.90
13642;DHT22;6894;52.196;9.904;2023-03-15T08:07:43;4.90;44.50
13642;DHT22;6894;52.196;9.904;2023-03-15T08:10:10;5.20;1.00
13642;DHT22;6894;52.196;9.904;2023-03-15T08:12:39;5.30;1.00
13642;DHT22;6894;52.196;9.904;2023-03-15T08:15:08;5.30;1.00
13642;DHT22;6894;52.196;9.904;2023-03-15T08:17:35;5.40;1.00
13642;DHT22;6894;52.196;9.904;2023-03-15T08:20:02;5.60;1.00
13642;DHT22;6894;52.196;9.904;2023-03-15T08:22:29;6.00;1.00
13642;DHT22;6894;52.196;9.904;2023-03-15T08:24:55;6.10;99.90
13642;DHT22;6894;52.196;9.904;2023-03-15T08:27:23;6.00;1.00
13642;DHT22;6894;52.196;9.904;2023-03-15T08:29:51;6.00;75.10
13642;DHT22;6894;52.196;9.904;2023-03-15T08:32:18;6.20;93.90
13642;DHT22;6894;52.196;9.904;2023-03-15T08:34:46;6.40;1.00
13642;DHT22;6894;52.196;9.904;2023-03-15T08:37:12;6.10;18.60
13642;DHT22;6894;52.196;9.904;2023-03-15T08:39:39;6.00;1.00
13642;DHT22;6894;52.196;9.904;2023-03-15T08:42:06;6.00;1.00
13642;DHT22;6894;52.196;9.904;2023-03-15T08:44:33;5.80;1.00
13642;DHT22;6894;52.196;9.904;2023-03-15T08:47:01;5.90;1.00
13642;DHT22;6894;52.196;9.904;2023-03-15T08:49:29;6.00;1.00
13642;DHT22;6894;52.196;9.904;2023-03-15T08:51:56;6.20;1.00
13642;DHT22;6894;52.196;9.904;2023-03-15T08:54:23;6.30;1.00
13642;DHT22;6894;52.196;9.904;2023-03-15T08:56:50;6.70;99.90
13642;DHT22;6894;52.196;9.904;2023-03-15T08:59:16;7.10;99.90
13642;DHT22;6894;52.196;9.904;2023-03-15T09:01:43;7.20;1.00
13642;DHT22;6894;52.196;9.904;2023-03-15T09:04:11;7.40;99.90
13642;DHT22;6894;52.196;9.904;2023-03-15T09:06:38;7.10;99.90
13642;DHT22;6894;52.196;9.904;2023-03-15T09:09:06;7.20;47.90
13642;DHT22;6894;52.196;9.904;2023-03-15T09:11:33;6.90;1.00
13642;DHT22;6894;52.196;9.904;2023-03-15T09:14:00;7.20;99.90
13642;DHT22;6894;52.196;9.904;2023-03-15T09:16:27;7.20;21.40
13642;DHT22;6894;52.196;9.904;2023-03-15T09:18:54;7.60;99.90
13642;DHT22;6894;52.196;9.904;2023-03-15T09:21:22;8.10;99.90
13642;DHT22;6894;52.196;9.904;2023-03-15T09:23:49;8.50;1.00
13642;DHT22;6894;52.196;9.904;2023-03-15T09:26:16;8.70;64.60
13642;DHT22;6894;52.196;9.904;2023-03-15T09:28:42;8.80;1.00
13642;DHT22;6894;52.196;9.904;2023-03-15T09:31:09;9.00;1.00
13642;DHT22;6894;52.196;9.904;2023-03-15T09:33:36;8.80;99.90
13642;DHT22;6894;52.196;9.904;2023-03-15T09:36:03;8.60;97.70
13642;DHT22;6894;52.196;9.904;2023-03-15T09:38:31;8.40;99.90
13642;DHT22;6894;52.196;9.904;2023-03-15T09:40:59;8.80;1.00
13642;DHT22;6894;52.196;9.904;2023-03-15T09:43:50;8.60;1.00
13642;DHT22;6894;52.196;9.904;2023-03-15T09:46:26;9.10;1.00
13642;DHT22;6894;52.196;9.904;2023-03-15T09:49:00;9.40;1.00
13642;DHT22;6894;52.196;9.904;2023-03-15T09:51:35;9.80;1.00
13642;DHT22;6894;52.196;9.904;2023-03-15T09:54:09;9.00;3.00
13642;DHT22;6894;52.196;9.904;2023-03-15T09:56:39;9.10;1.00
13642;DHT22;6894;52.196;9.904;2023-03-15T09:59:10;9.10;1.00
13642;DHT22;6894;52.196;9.904;2023-03-15T10:01:39;9.00;1.00
13642;DHT22;6894;52.196;9.904;2023-03-15T10:04:10;8.70;1.00
13642;DHT22;6894;52.196;9.904;2023-03-15T10:06:42;8.90;44.80
13642;DHT22;6894;52.196;9.904;2023-03-15T10:09:15;8.70;1.00
13642;DHT22;6894;52.196;9.904;2023-03-15T10:11:49;9.10;1.00
13642;DHT22;6894;52.196;9.904;2023-03-15T10:14:29;9.10;1.00
13642;DHT22;6894;52.196;9.904;2023-03-15T10:16:58;9.40;1.00
13642;DHT22;6894;52.196;9.904;2023-03-15T10:19:33;9.60;1.00
13642;DHT22;6894;52.196;9.904;2023-03-15T10:22:09;9.60;1.00
13642;DHT22;6894;52.196;9.904;2023-03-15T10:24:45;9.70;1.00
13642;DHT22;6894;52.196;9.904;2023-03-15T10:27:15;9.90;1.00
13642;DHT22;6894;52.196;9.904;2023-03-15T10:29:44;10.30;1.00
13642;DHT22;6894;52.196;9.904;2023-03-15T10:32:15;10.30;1.00
13642;DHT22;6894;52.196;9.904;2023-03-15T10:34:46;10.30;1.00
13642;DHT22;6894;52.196;9.904;2023-03-15T10:37:13;9.80;1.00
13642;DHT22;6894;52.196;9.904;2023-03-15T10:39:43;9.50;1.00
13642;DHT22;6894;52.196;9.904;2023-03-15T10:42:24;9.30;1.00
13642;DHT22;6894;52.196;9.904;2023-03-15T10:44:50;9.50;1.00
13642;DHT22;6894;52.196;9.904;2023-03-15T10:47:20;9.70;1.00
13642;DHT22;6894;52.196;9.904;2023-03-15T10:49:47;9.70;99.90
13642;DHT22;6894;52.196;9.904;2023-03-15T10:52:32;9.60;1.00
13642;DHT22;6894;52.196;9.904;2023-03-15T10:55:05;8.80;1.00
13642;DHT22;6894;52.196;9.904;2023-03-15T10:57:37;8.60;1.00
13642;DHT22;6894;52.196;9.904;2023-03-15T11:00:27;8.40;1.00
13642;DHT22;6894;52.196;9.904;2023-03-15T11:03:02;8.10;1.00
13642;DHT22;6894;52.196;9.904;2023-03-15T11:05:41;7.90;99.90
13642;DHT22;6894;52.196;9.904;2023-03-15T11:08:11;7.70;1.00
13642;DHT22;6894;52.196;9.904;2023-03-15T11:10:44;7.20;1.00
13642;DHT22;6894;52.196;9.904;2023-03-15T11:13:20;6.70;24.80
13642;DHT22;6894;52.196;9.904;2023-03-15T11:15:54;6.60;1.00
13642;DHT22;6894;52.196;9.904;2023-03-15T11:18:27;6.50;99.90
13642;DHT22;6894;52.196;9.904;2023-03-15T11:20:56;6.90;1.00
13642;DHT22;6894;52.196;9.904;2023-03-15T11:23:26;7.30;1.00
13642;DHT22;6894;52.196;9.904;2023-03-15T11:25:55;7.80;1.00
13642;DHT22;6894;52.196;9.904;2023-03-15T11:28:25;8.40;1.00
13642;DHT22;6894;52.196;9.904;2023-03-15T11:30:52;9.10;99.90
13642;DHT22;6894;52.196;9.904;2023-03-15T11:33:30;9.50;1.00
13642;DHT22;6894;52.196;9.904;2023-03-15T11:36:00;9.60;1.00
13642;DHT22;6894;52.196;9.904;2023-03-15T11:38:30;9.60;99.90
13642;DHT22;6894;52.196;9.904;2023-03-15T11:41:04;9.20;99.90
13642;DHT22;6894;52.196;9.904;2023-03-15T11:43:41;9.40;99.90
13642;DHT22;6894;52.196;9.904;2023-03-15T11:46:15;9.40;99.90
13642;DHT22;6894;52.196;9.904;2023-03-15T11:48:47;9.80;99.90
13642;DHT22;6894;52.196;9.904;2023-03-15T11:51:15;9.90;99.90
13642;DHT22;6894;52.196;9.904;2023-03-15T11:53:45;9.70;99.90
13642;DHT22;6894;52.196;9.904;2023-03-15T11:56:22;9.70;99.90
13642;DHT22;6894;52.196;9.904;2023-03-15T11:59:03;9.50;99.90
13642;DHT22;6894;52.196;9.904;2023-03-15T12:01:33;9.30;99.90
13642;DHT22;6894;52.196;9.904;2023-03-15T12:07:39;9.90;99.90
13642;DHT22;6894;52.196;9.904;2023-03-15T12:10:32;9.90;57.70
13642;DHT22;6894;52.196;9.904;2023-03-15T12:13:15;9.70;99.90
13642;DHT22;6894;52.196;9.904;2023-03-15T12:15:45;9.40;99.90
13642;DHT22;6894;52.196;9.904;2023-03-15T12:18:19;9.10;99.90
13642;DHT22;6894;52.196;9.904;2023-03-15T12:20:51;8.40;99.90
13642;DHT22;6894;52.196;9.904;2023-03-15T12:23:38;7.80;1.00
13642;DHT22;6894;52.196;9.904;2023-03-15T12:26:08;7.50;1.00
13642;DHT22;6894;52.196;9.904;2023-03-15T12:28:38;7.60;1.00
13642;DHT22;6894;52.196;9.904;2023-03-15T12:31:10;7.70;1.00
13642;DHT22;6894;52.196;9.904;2023-03-15T12:33:46;7.70;1.00
13642;DHT22;6894;52.196;9.904;2023-03-15T12:36:20;7.80;99.90
13642;DHT22;6894;52.196;9.904;2023-03-15T12:38:58;7.90;99.90
13642;DHT22;6894;52.196;9.904;2023-03-15T12:41:37;8.10;99.90
13642;DHT22;6894;52.196;9.904;2023-03-15T12:44:23;8.50;99.90
13642;DHT22;6894;52.196;9.904;2023-03-15T12:46:57;8.90;99.90
13642;DHT22;6894;52.196;9.904;2023-03-15T12:49:34;9.40;99.90
13642;DHT22;6894;52.196;9.904;2023-03-15T12:52:04;9.90;99.90
13642;DHT22;6894;52.196;9.904;2023-03-15T12:54:40;10.10;43.00
13642;DHT22;6894;52.196;9.904;2023-03-15T12:57:10;10.80;72.60
13642;DHT22;6894;52.196;9.904;2023-03-15T12:59:44;10.50;99.90
13642;DHT22;6894;52.196;9.904;2023-03-15T13:02:30;10.00;99.90
13642;DHT22;6894;52.196;9.904;2023-03-15T13:05:11;7.70;1.00
13642;DHT22;6894;52.196;9.904;2023-03-15T13:07:48;7.20;99.90
13642;DHT22;6894;52.196;9.904;2023-03-15T13:10:44;6.60;1.00
13642;DHT22;6894;52.196;9.904;2023-03-15T13:13:32;6.20;99.90
13642;DHT22;6894;52.196;9.904;2023-03-15T13:16:14;6.10;1.00
13642;DHT22;6894;52.196;9.904;2023-03-15T13:18:49;6.20;1.00
13642;DHT22;6894;52.196;9.904;2023-03-15T13:21:23;6.50;1.00
13642;DHT22;6894;52.196;9.904;2023-03-15T13:23:52;6.10;1.00
13642;DHT22;6894;52.196;9.904;2023-03-15T13:26:37;5.90;1.00
13642;DHT22;6894;52.196;9.904;2023-03-15T13:29:12;5.80;1.00
13642;DHT22;6894;52.196;9.904;2023-03-15T13:31:44;6.00;1.00
13642;DHT22;6894;52.196;9.904;2023-03-15T13:34:13;6.30;99.90
13642;DHT22;6894;52.196;9.904;2023-03-15T13:36:43;6.30;99.90
13642;DHT22;6894;52.196;9.904;2023-03-15T13:39:17;6.30;1.00
13642;DHT22;6894;52.196;9.904;2023-03-15T13:41:44;6.20;1.00
13642;DHT22;6894;52.196;9.904;2023-03-15T13:44:18;5.90;1.00
13642;DHT22;6894;52.196;9.904;2023-03-15T13:46:47;5.70;1.00
13642;DHT22;6894;52.196;9.904;2023-03-15T13:49:15;5.50;1.00
13642;DHT22;6894;52.196;9.904;2023-03-15T13:51:43;5.70;99.90
13642;DHT22;6894;52.196;9.904;2023-03-15T13:54:15;5.90;99.90
13642;DHT22;6894;52.196;9.904;2023-03-15T13:56:56;6.00;27.10
13642;DHT22;6894;52.196;9.904;2023-03-15T13:59:28;6.30;99.90
13642;DHT22;6894;52.196;9.904;2023-03-15T14:01:58;6.30;98.40
13642;DHT22;6894;52.196;9.904;2023-03-15T14:04:30;6.40;99.90
13642;DHT22;6894;52.196;9.904;2023-03-15T14:07:25;6.60;1.00
13642;DHT22;6894;52.196;9.904;2023-03-15T14:10:20;6.50;1.00
13642;DHT22;6894;52.196;9.904;2023-03-15T14:12:47;6.50;99.90
13642;DHT22;6894;52.196;9.904;2023-03-15T14:15:18;6.30;99.90
13642;DHT22;6894;52.196;9.904;2023-03-15T14:18:02;6.80;99.90
13642;DHT22;6894;52.196;9.904;2023-03-15T14:20:35;7.00;1.00
13642;DHT22;6894;52.196;9.904;2023-03-15T14:23:04;7.40;1.00
13642;DHT22;6894;52.196;9.904;2023-03-15T14:25:34;7.70;1.00
13642;DHT22;6894;52.196;9.904;2023-03-15T14:28:02;8.00;1.00
13642;DHT22;6894;52.196;9.904;2023-03-15T14:30:31;7.90;99.90
13642;DHT22;6894;52.196;9.904;2023-03-15T14:33:02;8.00;1.00
13642;DHT22;6894;52.196;9.904;2023-03-15T14:35:39;8.10;1.00
13642;DHT22;6894;52.196;9.904;2023-03-15T14:38:08;8.10;1.00
13642;DHT22;6894;52.196;9.904;2023-03-15T14:40:39;8.10;92.40
13642;DHT22;6894;52.196;9.904;2023-03-15T14:43:08;8.00;1.00
13642;DHT22;6894;52.196;9.904;2023-03-15T14:45:37;8.00;1.00
13642;DHT22;6894;52.196;9.904;2023-03-15T14:48:07;8.10;1.00
13642;DHT22;6894;52.196;9.904;2023-03-15T14:50:38;8.00;94.30
13642;DHT22;6894;52.196;9.904;2023-03-15T14:53:07;8.10;1.00
13642;DHT22;6894;52.196;9.904;2023-03-15T14:55:35;8.30;1.00
13642;DHT22;6894;52.196;9.904;2023-03-15T14:58:03;8.60;1.00
13642;DHT22;6894;52.196;9.904;2023-03-15T15:00:31;8.50;1.00
13642;DHT22;6894;52.196;9.904;2023-03-15T15:02:58;8.60;1.00
13642;DHT22;6894;52.196;9.904;2023-03-15T15:05:28;8.60;1.00
13642;DHT22;6894;52.196;9.904;2023-03-15T15:08:01;8.50;99.90
13642;DHT22;6894;52.196;9.904;2023-03-15T15:10:28;8.60;1.00
13642;DHT22;6894;52.196;9.904;2023-03-15T15:12:56;8.40;99.90
13642;DHT22;6894;52.196;9.904;2023-03-15T15:15:23;8.40;1.00
13642;DHT22;6894;52.196;9.904;2023-03-15T15:17:50;8.40;99.90
13642;DHT22;6894;52.196;9.904;2023-03-15T15:20:18;8.60;1.00
13642;DHT22;6894;52.196;9.904;2023-03-15T15:22:47;8.30;1.00
13642;DHT22;6894;52.196;9.904;2023-03-15T15:25:15;8.20;1.00
13642;DHT22;6894;52.196;9.904;2023-03-15T15:27:42;8.10;1.00
13642;DHT22;6894;52.196;9.904;2023-03-15T15:30:12;8.20;1.00
13642;DHT22;6894;52.196;9.904;2023-03-15T15:32:39;8.40;1.00
13642;DHT22;6894;52.196;9.904;2023-03-15T15:35:09;8.40;1.00
13642;DHT22;6894;52.196;9.904;2023-03-15T15:37:36;8.40;1.00
13642;DHT22;6894;52.196;9.904;2023-03-15T15:40:10;8.20;99.90
13642;DHT22;6894;52.196;9.904;2023-03-15T15:42:37;8.10;1.00
13642;DHT22;6894;52.196;9.904;2023-03-15T15:45:09;8.00;1.00
13642;DHT22;6894;52.196;9.904;2023-03-15T15:47:37;8.00;1.00
13642;DHT22;6894;52.196;9.904;2023-03-15T15:50:04;8.20;1.00
13642;DHT22;6894;52.196;9.904;2023-03-15T15:52:31;7.70;1.00
13642;DHT22;6894;52.196;9.904;2023-03-15T15:54:58;7.60;1.00
13642;DHT22;6894;52.196;9.904;2023-03-15T15:57:29;7.50;1.10
13642;DHT22;6894;52.196;9.904;2023-03-15T15:59:56;7.70;99.90
13642;DHT22;6894;52.196;9.904;2023-03-15T16:02:23;7.80;10.60
13642;DHT22;6894;52.196;9.904;2023-03-15T16:04:50;8.00;1.00
13642;DHT22;6894;52.196;9.904;2023-03-15T16:07:17;7.90;99.90
13642;DHT22;6894;52.196;9.904;2023-03-15T16:09:44;8.00;1.00
13642;DHT22;6894;52.196;9.904;2023-03-15T16:12:15;8.00;1.00
13642;DHT22;6894;52.196;9.904;2023-03-15T16:14:43;7.70;99.90
13642;DHT22;6894;52.196;9.904;2023-03-15T16:17:11;7.70;1.00
13642;DHT22;6894;52.196;9.904;2023-03-15T16:19:40;8.10;1.00
13642;DHT22;6894;52.196;9.904;2023-03-15T16:22:07;7.80;99.90
13642;DHT22;6894;52.196;9.904;2023-03-15T16:24:34;7.80;1.00